createdAt,value
2022-10-29T00:02:08.619Z,99443.28
2022-10-29T00:04:53.807Z,99440.50
2022-10-29T00:07:38.934Z,99451.22
2022-10-29T00:10:24.334Z,99445.66
2022-10-29T00:13:09.510Z,99444.06
2022-10-29T00:15:54.538Z,99454.03
2022-10-29T00:18:40.137Z,99455.22
2022-10-29T00:21:26.619Z,99458.81
2022-10-29T00:24:12.011Z,99458.06
2022-10-29T00:26:57.310Z,99463.25
2022-10-29T00:29:42.667Z,99460.13
2022-10-29T00:32:27.945Z,99458.97
2022-10-29T00:35:13.157Z,99461.00
2022-10-29T00:37:58.441Z,99459.47
2022-10-29T00:40:44.163Z,99465.47
2022-10-29T00:43:29.632Z,99453.22
2022-10-29T00:46:26.842Z,99463.94
2022-10-29T00:49:12.401Z,99458.44
2022-10-29T00:51:58.956Z,99450.50
2022-10-29T00:54:47.719Z,99450.56
2022-10-29T00:57:40.686Z,99448.19
2022-10-29T01:00:26.482Z,99451.38
2022-10-29T01:03:12.107Z,99441.91
2022-10-29T01:05:58.052Z,99440.34
2022-10-29T01:08:43.363Z,99447.09
2022-10-29T01:11:37.588Z,99445.94
2022-10-29T01:14:52.325Z,99439.22
2022-10-29T01:17:49.658Z,99435.28
2022-10-29T01:20:50.304Z,99440.47
2022-10-29T01:23:54.141Z,99438.47
2022-10-29T01:27:02.688Z,99435.34
2022-10-29T01:30:10.805Z,99444.09
2022-10-29T01:33:38.387Z,99439.34
2022-10-29T01:36:23.764Z,99435.44
2022-10-29T01:39:23.293Z,99425.94
2022-10-29T01:42:24.536Z,99439.03
2022-10-29T01:45:12.776Z,99441.81
2022-10-29T01:48:04.493Z,99438.66
2022-10-29T01:50:54.739Z,99445.41
2022-10-29T01:53:41.041Z,99436.72
2022-10-29T01:56:26.550Z,99442.25
2022-10-29T01:59:23.064Z,99442.69
2022-10-29T02:02:34.988Z,99439.53
2022-10-29T02:05:42.181Z,99437.97
2022-10-29T02:08:41.960Z,99437.16
2022-10-29T02:11:38.065Z,99431.25
2022-10-29T02:14:30.122Z,99428.47
2022-10-29T02:17:15.307Z,99423.34
2022-10-29T02:20:05.494Z,99433.66
2022-10-29T02:22:51.122Z,99423.75
2022-10-29T02:25:36.822Z,99426.53
2022-10-29T02:28:22.363Z,99432.91
2022-10-29T02:31:07.906Z,99426.16
2022-10-29T02:33:53.474Z,99439.25
2022-10-29T02:36:39.020Z,99433.72
2022-10-29T02:39:24.297Z,99436.84
2022-10-29T02:42:09.577Z,99444.41
2022-10-29T02:44:54.933Z,99436.47
2022-10-29T02:47:40.314Z,99447.59
2022-10-29T02:50:25.741Z,99443.25
2022-10-29T02:53:10.924Z,99444.44
2022-10-29T02:55:56.093Z,99434.53
2022-10-29T02:58:41.545Z,99435.72
2022-10-29T03:01:26.976Z,99444.88
2022-10-29T03:04:12.094Z,99442.50
2022-10-29T03:06:57.451Z,99449.22
2022-10-29T03:09:42.701Z,99446.47
2022-10-29T03:12:27.860Z,99446.91
2022-10-29T03:15:13.120Z,99446.09
2022-10-29T03:17:58.537Z,99451.66
2022-10-29T03:20:45.507Z,99456.41
2022-10-29T03:23:30.685Z,99460.38
2022-10-29T03:26:16.084Z,99457.63
2022-10-29T03:29:01.549Z,99466.34
2022-10-29T03:31:46.903Z,99463.56
2022-10-29T03:34:32.268Z,99471.91
2022-10-29T03:37:17.521Z,99470.34
2022-10-29T03:40:03.956Z,99468.75
2022-10-29T03:42:49.350Z,99471.53
2022-10-29T03:45:34.389Z,99480.28
2022-10-29T03:48:20.451Z,99476.69
2022-10-29T03:51:07.734Z,99475.13
2022-10-29T03:53:52.864Z,99481.88
2022-10-29T03:56:38.162Z,99480.69
2022-10-29T03:59:23.414Z,99481.88
2022-10-29T04:02:09.813Z,99477.53
2022-10-29T04:04:55.031Z,99481.47
2022-10-29T04:07:40.183Z,99484.25
2022-10-29T04:10:26.784Z,99485.47
2022-10-29T04:13:12.492Z,99485.88
2022-10-29T04:15:58.101Z,99495.00
2022-10-29T04:18:43.373Z,99498.97
2022-10-29T04:23:40.246Z,99498.97
2022-10-29T04:27:01.784Z,99502.97
2022-10-29T04:30:45.228Z,99495.03
2022-10-29T04:33:30.287Z,99496.59
2022-10-29T04:36:15.580Z,99502.56
2022-10-29T04:39:01.003Z,99497.03
2022-10-29T04:41:49.622Z,99503.75
2022-10-29T04:44:35.207Z,99504.56
2022-10-29T04:47:20.543Z,99494.66
2022-10-29T04:50:05.847Z,99497.03
2022-10-29T04:52:51.264Z,99491.09
2022-10-29T04:55:41.203Z,99489.50
2022-10-29T04:58:26.774Z,99489.50
2022-10-29T05:01:12.183Z,99486.72
2022-10-29T05:04:00.009Z,99484.75
2022-10-29T05:06:45.975Z,99489.50
2022-10-29T05:09:31.392Z,99491.50
2022-10-29T05:12:16.562Z,99496.28
2022-10-29T05:15:01.918Z,99489.50
2022-10-29T05:17:47.207Z,99503.38
2022-10-29T05:20:33.026Z,99502.19
2022-10-29T05:23:18.476Z,99502.19
2022-10-29T05:26:03.965Z,99515.28
2022-10-29T05:28:51.413Z,99518.47
2022-10-29T05:31:36.814Z,99510.91
2022-10-29T05:34:22.013Z,99515.69
2022-10-29T05:37:07.332Z,99504.59
2022-10-29T05:39:52.481Z,99518.47
2022-10-29T05:42:39.326Z,99532.34
2022-10-29T05:45:27.026Z,99521.22
2022-10-29T05:51:03.111Z,99516.47
2022-10-29T05:53:48.483Z,99518.47
2022-10-29T05:56:33.625Z,99522.81
2022-10-29T05:59:18.965Z,99522.03
2022-10-29T06:02:04.462Z,99524.00
2022-10-29T06:04:50.473Z,99524.00
2022-10-29T06:07:36.086Z,99526.78
2022-10-29T06:10:22.037Z,99528.72
2022-10-29T06:13:15.354Z,99534.28
2022-10-29T06:16:01.196Z,99517.59
2022-10-29T06:18:46.717Z,99512.44
2022-10-29T06:21:31.889Z,99512.38
2022-10-29T06:24:17.479Z,99516.34
2022-10-29T06:27:02.979Z,99523.47
2022-10-29T06:29:48.359Z,99521.44
2022-10-29T06:32:34.225Z,99523.75
2022-10-29T06:35:20.170Z,99531.69
2022-10-29T06:38:09.364Z,99538.41
2022-10-29T06:40:56.682Z,99538.78
2022-10-29T06:43:41.932Z,99537.56
2022-10-29T06:46:27.073Z,99540.34
2022-10-29T06:49:12.332Z,99546.31
2022-10-29T06:51:57.515Z,99539.97
2022-10-29T06:54:43.626Z,99545.91
2022-10-29T06:57:29.748Z,99535.19
2022-10-29T07:00:16.093Z,99546.28
2022-10-29T07:03:02.406Z,99538.75
2022-10-29T07:05:48.304Z,99548.22
2022-10-29T07:08:33.922Z,99551.38
2022-10-29T07:11:21.749Z,99550.53
2022-10-29T07:14:08.725Z,99554.91
2022-10-29T07:16:54.771Z,99545.75
2022-10-29T07:22:27.259Z,99543.72
2022-10-29T07:25:13.687Z,99539.75
2022-10-29T07:28:06.419Z,99542.91
2022-10-29T07:30:53.124Z,99542.06
2022-10-29T07:33:38.473Z,99538.91
2022-10-29T07:36:24.099Z,99546.00
2022-10-29T07:39:09.407Z,99534.06
2022-10-29T07:41:58.264Z,99546.69
2022-10-29T07:44:44.484Z,99542.34
2022-10-29T07:47:29.764Z,99538.75
2022-10-29T07:50:15.228Z,99535.16
2022-10-29T07:53:01.420Z,99533.16
2022-10-29T07:55:55.530Z,99532.75
2022-10-29T07:58:41.096Z,99540.66
2022-10-29T08:01:26.429Z,99548.13
2022-10-29T08:04:11.979Z,99551.72
2022-10-29T08:06:57.436Z,99548.59
2022-10-29T08:09:42.686Z,99548.59
2022-10-29T08:12:27.977Z,99541.47
2022-10-29T08:15:13.259Z,99539.50
2022-10-29T08:17:58.536Z,99537.00
2022-10-29T08:20:44.640Z,99528.66
2022-10-29T08:23:30.391Z,99533.03
2022-10-29T08:26:15.660Z,99527.88
2022-10-29T08:29:00.901Z,99531.88
2022-10-29T08:31:46.211Z,99512.44
2022-10-29T08:34:31.535Z,99502.09
2022-10-29T08:37:16.908Z,99502.47
2022-10-29T08:40:02.012Z,99493.69
2022-10-29T08:43:10.853Z,99499.22
2022-10-29T08:45:57.413Z,99494.88
2022-10-29T08:48:51.261Z,99504.00
2022-10-29T08:51:39.254Z,99501.97
2022-10-29T08:54:31.673Z,99504.69
2022-10-29T08:57:21.747Z,99504.69
2022-10-29T09:00:15.506Z,99501.81
2022-10-29T09:03:01.561Z,99497.78
2022-10-29T09:06:14.938Z,99501.72
2022-10-29T09:09:00.019Z,99500.88
2022-10-29T09:11:58.055Z,99496.91
2022-10-29T09:15:04.209Z,99488.94
2022-10-29T09:17:56.119Z,99481.31
2022-10-29T09:20:53.764Z,99475.75
2022-10-29T09:23:45.191Z,99478.09
2022-10-29T09:26:51.170Z,99478.88
2022-10-29T09:30:01.205Z,99474.09
2022-10-29T09:33:07.528Z,99470.56
2022-10-29T09:35:55.830Z,99474.47
2022-10-29T09:38:51.620Z,99467.69
2022-10-29T09:41:38.751Z,99472.06
2022-10-29T09:44:49.829Z,99475.22
2022-10-29T09:47:45.872Z,99487.50
2022-10-29T09:50:36.436Z,99485.50
2022-10-29T09:53:22.354Z,99498.19
2022-10-29T09:56:09.647Z,99490.63
2022-10-29T09:59:07.449Z,99488.63
2022-10-29T10:01:52.942Z,99494.94
2022-10-29T10:04:44.354Z,99495.31
2022-10-29T10:07:30.056Z,99487.78
2022-10-29T10:10:23.728Z,99488.16
2022-10-29T10:13:17.006Z,99484.19
2022-10-29T10:16:06.102Z,99484.97
2022-10-29T10:18:51.402Z,99477.41
2022-10-29T10:21:38.838Z,99480.19
2022-10-29T10:24:35.978Z,99475.34
2022-10-29T10:27:29.415Z,99480.38
2022-10-29T10:30:17.902Z,99471.66
2022-10-29T10:36:13.899Z,99457.34
2022-10-29T10:39:00.559Z,99451.34
2022-10-29T10:41:46.212Z,99446.22
2022-10-29T10:44:32.343Z,99452.94
2022-10-29T10:47:23.598Z,99455.25
2022-10-29T10:50:26.472Z,99453.28
2022-10-29T10:53:21.473Z,99462.78
2022-10-29T10:56:06.789Z,99451.66
2022-10-29T10:59:13.372Z,99454.44
2022-10-29T11:02:00.724Z,99453.34
2022-10-29T11:04:52.840Z,99440.28
2022-10-29T11:07:47.590Z,99442.28
2022-10-29T11:11:02.155Z,99442.34
2022-10-29T11:13:49.086Z,99437.63
2022-10-29T11:16:44.440Z,99430.47
2022-10-29T11:19:42.094Z,99425.06
2022-10-29T11:22:54.812Z,99415.97
2022-10-29T11:25:46.036Z,99421.16
2022-10-29T11:28:52.891Z,99407.69
2022-10-29T11:31:49.870Z,99404.91
2022-10-29T11:34:44.546Z,99399.81
2022-10-29T11:37:33.878Z,99396.69
2022-10-29T11:40:43.788Z,99390.75
2022-10-29T11:43:29.226Z,99394.75
2022-10-29T11:46:14.426Z,99383.28
2022-10-29T11:49:08.713Z,99393.25
2022-10-29T11:52:08.302Z,99384.53
2022-10-29T11:55:31.562Z,99384.13
2022-10-29T11:58:28.688Z,99378.59
2022-10-29T12:01:22.861Z,99370.72
2022-10-29T12:04:24.041Z,99370.78
2022-10-29T12:07:12.865Z,99366.84
2022-10-29T12:10:04.353Z,99367.63
2022-10-29T12:13:11.420Z,99370.03
2022-10-29T12:16:06.382Z,99363.34
2022-10-29T12:19:18.203Z,99363.75
2022-10-29T12:22:31.856Z,99372.53
2022-10-29T12:25:42.887Z,99362.59
2022-10-29T12:28:42.933Z,99370.56
2022-10-29T12:31:31.596Z,99355.53
2022-10-29T12:34:52.787Z,99363.09
2022-10-29T12:37:49.284Z,99363.13
2022-10-29T12:40:38.004Z,99354.44
2022-10-29T12:43:27.360Z,99357.63
2022-10-29T12:46:20.669Z,99341.75
2022-10-29T12:49:22.866Z,99340.97
2022-10-29T12:52:33.878Z,99341.75
2022-10-29T12:55:19.910Z,99329.13
2022-10-29T12:58:50.668Z,99326.72
2022-10-29T13:02:05.828Z,99329.84
2022-10-29T13:05:10.048Z,99335.78
2022-10-29T13:08:01.779Z,99328.28
2022-10-29T13:10:53.488Z,99322.72
2022-10-29T13:13:47.532Z,99321.16
2022-10-29T13:16:33.208Z,99322.72
2022-10-29T13:19:36.666Z,99324.72
2022-10-29T13:23:09.653Z,99320.38
2022-10-29T13:25:58.092Z,99325.50
2022-10-29T13:28:48.311Z,99329.84
2022-10-29T13:31:33.853Z,99315.97
2022-10-29T13:34:52.646Z,99313.19
2022-10-29T13:37:47.272Z,99310.81
2022-10-29T13:40:32.551Z,99315.59
2022-10-29T13:43:18.831Z,99311.69
2022-10-29T13:46:45.589Z,99316.47
2022-10-29T13:49:37.307Z,99316.50
2022-10-29T13:52:24.245Z,99323.63
2022-10-29T13:55:14.380Z,99321.28
2022-10-29T13:58:23.686Z,99326.84
2022-10-29T14:01:14.652Z,99330.81
2022-10-29T14:04:24.541Z,99324.47
2022-10-29T14:07:17.548Z,99324.88
2022-10-29T14:10:12.424Z,99327.66
2022-10-29T14:13:07.434Z,99323.31
2022-10-29T14:16:27.172Z,99314.97
2022-10-29T14:19:21.214Z,99328.88
2022-10-29T14:22:16.590Z,99331.66
2022-10-29T14:25:23.693Z,99328.50
2022-10-29T14:28:13.075Z,99329.28
2022-10-29T14:31:14.653Z,99332.50
2022-10-29T14:34:01.165Z,99327.72
2022-10-29T14:36:48.909Z,99333.69
2022-10-29T14:39:59.534Z,99330.91
2022-10-29T14:42:48.349Z,99330.91
2022-10-29T14:45:33.804Z,99328.91
2022-10-29T14:48:19.423Z,99329.72
2022-10-29T14:51:06.176Z,99334.06
2022-10-29T14:54:00.003Z,99337.25
2022-10-29T14:56:50.258Z,99330.13
2022-10-29T14:59:36.030Z,99334.91
2022-10-29T15:02:39.255Z,99330.91
2022-10-29T15:05:25.094Z,99335.69
2022-10-29T15:08:10.745Z,99330.13
2022-10-29T15:10:58.116Z,99334.91
2022-10-29T15:13:45.987Z,99335.31
2022-10-29T15:16:35.714Z,99334.53
2022-10-29T15:19:23.983Z,99337.72
2022-10-29T15:22:11.087Z,99339.28
2022-10-29T15:24:57.097Z,99331.38
2022-10-29T15:27:42.837Z,99331.75
2022-10-29T15:30:35.283Z,99327.41
2022-10-29T15:33:31.603Z,99332.94
2022-10-29T15:36:17.677Z,99331.75
2022-10-29T15:39:20.017Z,99324.63
2022-10-29T15:42:20.786Z,99332.50
2022-10-29T15:45:06.185Z,99341.59
2022-10-29T15:47:58.165Z,99338.88
2022-10-29T15:50:45.822Z,99333.69
2022-10-29T15:53:31.233Z,99334.06
2022-10-29T15:56:16.654Z,99330.06
2022-10-29T15:59:02.035Z,99337.19
2022-10-29T16:01:47.448Z,99331.66
2022-10-29T16:04:32.464Z,99328.47
2022-10-29T16:07:18.085Z,99336.78
2022-10-29T16:10:03.904Z,99330.81
2022-10-29T16:12:50.086Z,99326.06
2022-10-29T16:15:38.726Z,99326.38
2022-10-29T16:18:27.550Z,99330.75
2022-10-29T16:21:20.556Z,99338.69
2022-10-29T16:24:06.389Z,99331.06
2022-10-29T16:26:51.749Z,99333.06
2022-10-29T16:29:37.033Z,99329.84
2022-10-29T16:32:24.048Z,99333.00
2022-10-29T16:35:26.867Z,99332.22
2022-10-29T16:38:13.033Z,99334.16
2022-10-29T16:40:58.320Z,99333.75
2022-10-29T16:43:44.100Z,99332.16
2022-10-29T16:46:31.827Z,99330.97
2022-10-29T16:49:17.193Z,99324.97
2022-10-29T16:52:02.493Z,99333.63
2022-10-29T16:54:47.882Z,99328.84
2022-10-29T16:57:34.426Z,99331.56
2022-10-29T17:00:21.196Z,99330.72
2022-10-29T17:03:11.354Z,99326.38
2022-10-29T17:06:04.531Z,99327.09
2022-10-29T17:08:50.842Z,99321.13
2022-10-29T17:11:36.290Z,99329.03
2022-10-29T17:14:21.592Z,99325.81
2022-10-29T17:17:07.440Z,99322.63
2022-10-29T17:19:53.807Z,99323.84
2022-10-29T17:22:39.546Z,99327.00
2022-10-29T17:25:25.043Z,99325.78
2022-10-29T17:28:10.230Z,99330.13
2022-10-29T17:30:56.188Z,99325.38
2022-10-29T17:33:41.464Z,99330.88
2022-10-29T17:36:26.675Z,99330.09
2022-10-29T17:39:12.230Z,99330.88
2022-10-29T17:41:57.393Z,99332.47
2022-10-29T17:44:42.837Z,99333.66
2022-10-29T17:47:28.120Z,99334.00
2022-10-29T17:50:14.558Z,99330.41
2022-10-29T17:52:59.959Z,99334.75
2022-10-29T17:55:45.090Z,99330.81
2022-10-29T17:58:31.222Z,99329.22
2022-10-29T18:01:16.955Z,99337.16
2022-10-29T18:04:02.552Z,99326.03
2022-10-29T18:06:47.982Z,99326.03
2022-10-29T18:09:33.153Z,99329.19
2022-10-29T18:12:18.476Z,99323.22
2022-10-29T18:15:04.044Z,99326.41
2022-10-29T18:17:49.857Z,99325.53
2022-10-29T18:20:35.109Z,99335.47
2022-10-29T18:23:20.261Z,99334.25
2022-10-29T18:26:19.040Z,99328.69
2022-10-29T18:29:10.778Z,99331.91
2022-10-29T18:31:56.462Z,99333.09
2022-10-29T18:34:41.814Z,99328.31
2022-10-29T18:37:27.422Z,99325.91
2022-10-29T18:40:13.179Z,99326.34
2022-10-29T18:42:59.765Z,99325.91
2022-10-29T18:45:44.997Z,99325.91
2022-10-29T18:51:26.720Z,99327.41
2022-10-29T18:54:13.191Z,99333.78
2022-10-29T18:56:58.666Z,99327.41
2022-10-29T18:59:45.028Z,99334.56
2022-10-29T19:02:30.588Z,99330.94
2022-10-29T19:05:15.681Z,99337.25
2022-10-29T19:08:01.589Z,99334.94
2022-10-29T19:10:46.656Z,99337.72
2022-10-29T19:13:32.819Z,99334.47
2022-10-29T19:16:19.717Z,99328.91
2022-10-29T19:19:07.988Z,99334.47
2022-10-29T19:21:55.924Z,99338.84
2022-10-29T19:24:41.530Z,99332.06
2022-10-29T19:27:26.773Z,99337.56
2022-10-29T19:30:12.275Z,99336.34
2022-10-29T19:33:01.201Z,99335.56
2022-10-29T19:35:50.334Z,99338.00
2022-10-29T19:38:35.811Z,99338.44
2022-10-29T19:41:21.735Z,99335.66
2022-10-29T19:44:07.247Z,99337.22
2022-10-29T19:46:52.691Z,99342.41
2022-10-29T19:49:38.285Z,99330.50
2022-10-29T19:52:24.018Z,99342.34
2022-10-29T19:55:09.950Z,99335.16
2022-10-29T19:57:55.208Z,99334.28
2022-10-29T20:00:40.617Z,99340.63
2022-10-29T20:03:26.325Z,99331.09
2022-10-29T20:06:11.730Z,99329.88
2022-10-29T20:08:57.261Z,99318.75
2022-10-29T20:11:42.760Z,99319.97
2022-10-29T20:14:29.247Z,99322.41
2022-10-29T20:17:14.713Z,99325.94
2022-10-29T20:19:59.987Z,99322.41
2022-10-29T20:22:46.360Z,99323.94
2022-10-29T20:25:31.645Z,99327.19
2022-10-29T20:28:17.102Z,99327.94
2022-10-29T20:31:18.164Z,99320.03
2022-10-29T20:34:03.770Z,99320.84
2022-10-29T20:36:49.561Z,99328.00
2022-10-29T20:39:35.117Z,99323.63
2022-10-29T20:42:20.276Z,99324.75
2022-10-29T20:45:06.782Z,99322.41
2022-10-29T20:47:52.013Z,99323.16
2022-10-29T20:50:37.244Z,99326.41
2022-10-29T20:53:22.540Z,99318.38
2022-10-29T20:56:10.345Z,99319.63
2022-10-29T20:58:58.693Z,99319.19
2022-10-29T21:01:44.074Z,99320.47
2022-10-29T21:04:29.614Z,99323.63
2022-10-29T21:07:14.766Z,99326.81
2022-10-29T21:09:59.873Z,99329.19
2022-10-29T21:12:45.160Z,99322.03
2022-10-29T21:15:30.867Z,99327.94
2022-10-29T21:18:16.242Z,99327.94
2022-10-29T21:21:05.264Z,99319.63
2022-10-29T21:23:50.743Z,99330.22
2022-10-29T21:26:36.313Z,99319.56
2022-10-29T21:29:21.589Z,99317.97
2022-10-29T21:32:06.752Z,99325.53
2022-10-29T21:34:51.984Z,99321.16
2022-10-29T21:37:37.053Z,99317.59
2022-10-29T21:40:22.269Z,99320.38
2022-10-29T21:43:07.444Z,99321.16
2022-10-29T21:45:52.860Z,99310.84
2022-10-29T21:48:38.234Z,99312.81
2022-10-29T21:51:23.417Z,99318.38
2022-10-29T21:54:08.827Z,99325.53
2022-10-29T21:56:54.089Z,99312.81
2022-10-29T21:59:39.347Z,99317.19
2022-10-29T22:02:24.624Z,99314.41
2022-10-29T22:05:10.531Z,99306.84
2022-10-29T22:07:56.632Z,99322.75
2022-10-29T22:10:42.032Z,99309.63
2022-10-29T22:13:28.902Z,99314.41
2022-10-29T22:16:14.357Z,99311.22
2022-10-29T22:19:00.477Z,99307.22
2022-10-29T22:21:46.339Z,99317.97
2022-10-29T22:24:31.853Z,99310.41
2022-10-29T22:27:17.331Z,99311.63
2022-10-29T22:30:04.279Z,99314.06
2022-10-29T22:32:49.501Z,99308.84
2022-10-29T22:35:34.856Z,99298.91
2022-10-29T22:38:20.017Z,99305.28
2022-10-29T22:41:09.648Z,99302.94
2022-10-29T22:43:56.104Z,99301.69
2022-10-29T22:46:41.386Z,99302.94
2022-10-29T22:49:26.506Z,99304.94
2022-10-29T22:52:11.900Z,99298.91
2022-10-29T22:54:57.033Z,99300.50
2022-10-29T22:57:42.417Z,99300.16
2022-10-29T23:00:27.693Z,99301.69
2022-10-29T23:03:13.046Z,99308.84
2022-10-29T23:06:00.042Z,99304.47
2022-10-29T23:08:46.272Z,99306.47
2022-10-29T23:11:34.964Z,99311.69
2022-10-29T23:14:20.218Z,99311.28
2022-10-29T23:17:05.323Z,99307.25
2022-10-29T23:19:50.663Z,99302.56
2022-10-29T23:22:35.814Z,99302.50
2022-10-29T23:25:21.033Z,99301.69
2022-10-29T23:28:06.495Z,99307.25
2022-10-29T23:30:56.428Z,99300.94
2022-10-29T23:33:50.689Z,99302.56
2022-10-29T23:36:35.889Z,99302.50
2022-10-29T23:39:21.365Z,99302.06
2022-10-29T23:42:06.568Z,99299.28
2022-10-29T23:44:52.081Z,99298.50
2022-10-29T23:47:37.478Z,99295.72
2022-10-29T23:50:22.630Z,99297.66
2022-10-29T23:53:08.491Z,99289.75
2022-10-29T23:55:53.817Z,99293.72
2022-10-29T23:58:39.082Z,99281.91
